createdAt,value
2019-01-20T00:00:08.786Z,93238.80
2019-01-20T00:02:36.302Z,93235.37
2019-01-20T00:05:04.634Z,93235.92
2019-01-20T00:07:32.125Z,93237.39
2019-01-20T00:09:59.483Z,93232.16
2019-01-20T00:12:26.835Z,93234.13
2019-01-20T00:14:54.254Z,93232.55
2019-01-20T00:17:21.612Z,93233.47
2019-01-20T00:19:49.051Z,93231.86
2019-01-20T00:22:16.455Z,93228.11
2019-01-20T00:24:43.934Z,93231.15
2019-01-20T00:27:11.308Z,93228.80
2019-01-20T00:29:38.811Z,93227.32
2019-01-20T00:32:06.218Z,93226.77
2019-01-20T00:34:33.619Z,93230.92
2019-01-20T00:37:01.046Z,93227.88
2019-01-20T00:39:28.718Z,93227.68
2019-01-20T00:41:56.198Z,93230.07
2019-01-20T00:44:23.593Z,93236.45
2019-01-20T00:46:50.955Z,93228.59
2019-01-20T00:49:18.356Z,93225.13
2019-01-20T00:51:45.722Z,93231.28
2019-01-20T00:54:13.126Z,93234.19
2019-01-20T00:56:40.522Z,93232.42
2019-01-20T00:59:07.955Z,93230.23
2019-01-20T01:01:35.439Z,93229.31
2019-01-20T01:04:02.983Z,93228.80
2019-01-20T01:06:30.481Z,93223.69
2019-01-20T01:08:58.129Z,93231.15
2019-01-20T01:11:31.554Z,93239.06
2019-01-20T01:13:54.780Z,93237.27
2019-01-20T01:16:22.177Z,93233.41
2019-01-20T01:18:49.610Z,93232.30
2019-01-20T01:21:16.969Z,93232.72
2019-01-20T01:23:44.368Z,93233.67
2019-01-20T01:26:11.729Z,93231.80
2019-01-20T01:28:39.187Z,93238.94
2019-01-20T01:31:06.548Z,93234.06
2019-01-20T01:33:33.959Z,93231.87
2019-01-20T01:36:01.568Z,93238.94
2019-01-20T01:38:28.934Z,93235.70
2019-01-20T01:40:56.343Z,93234.61
2019-01-20T01:43:24.045Z,93236.61
2019-01-20T01:45:51.416Z,93240.30
2019-01-20T01:48:18.768Z,93235.89
2019-01-20T01:50:46.194Z,93231.51
2019-01-20T01:53:13.563Z,93231.51
2019-01-20T01:55:40.914Z,93232.66
2019-01-20T01:58:08.335Z,93235.39
2019-01-20T02:00:35.842Z,93233.20
2019-01-20T02:03:03.579Z,93236.61
2019-01-20T02:05:30.961Z,93232.42
2019-01-20T02:07:58.312Z,93230.43
2019-01-20T02:10:25.713Z,93228.05
2019-01-20T02:12:53.070Z,93231.38
2019-01-20T02:15:20.993Z,93236.12
2019-01-20T02:17:49.011Z,93228.47
2019-01-20T02:20:18.065Z,93240.17
2019-01-20T02:22:45.685Z,93237.46
2019-01-20T02:25:13.391Z,93237.36
2019-01-20T02:27:40.817Z,93239.65
2019-01-20T02:30:10.645Z,93238.73
2019-01-20T02:32:38.370Z,93236.05
2019-01-20T02:35:06.199Z,93239.87
2019-01-20T02:37:33.602Z,93236.38
2019-01-20T02:40:01.079Z,93231.08
2019-01-20T02:42:28.434Z,93228.98
2019-01-20T02:44:55.819Z,93229.94
2019-01-20T02:47:23.324Z,93229.02
2019-01-20T02:49:50.690Z,93228.47
2019-01-20T02:52:18.056Z,93229.45
2019-01-20T02:54:45.450Z,93231.56
2019-01-20T02:57:12.843Z,93231.00
2019-01-20T02:59:40.203Z,93230.06
2019-01-20T03:02:07.592Z,93224.88
2019-01-20T03:04:34.980Z,93232.46
2019-01-20T03:07:02.356Z,93230.39
2019-01-20T03:09:32.346Z,93232.41
2019-01-20T03:12:03.559Z,93220.02
2019-01-20T03:14:28.986Z,93218.63
2019-01-20T03:16:56.330Z,93223.89
2019-01-20T03:19:23.760Z,93215.43
2019-01-20T03:21:51.174Z,93215.43
2019-01-20T03:24:18.519Z,93221.66
2019-01-20T03:26:45.890Z,93220.39
2019-01-20T03:29:13.276Z,93217.75
2019-01-20T03:31:40.661Z,93217.30
2019-01-20T03:34:08.065Z,93214.55
2019-01-20T03:36:35.427Z,93211.30
2019-01-20T03:39:04.620Z,93211.09
2019-01-20T03:41:31.978Z,93210.75
2019-01-20T03:43:59.355Z,93210.50
2019-01-20T03:46:26.754Z,93217.86
2019-01-20T03:48:54.135Z,93214.34
2019-01-20T03:51:21.475Z,93214.59
2019-01-20T03:53:48.866Z,93213.42
2019-01-20T03:56:16.464Z,93219.14
2019-01-20T03:58:43.827Z,93221.55
2019-01-20T04:01:11.185Z,93216.44
2019-01-20T04:03:38.719Z,93214.12
2019-01-20T04:06:06.088Z,93216.93
2019-01-20T04:08:33.473Z,93217.50
2019-01-20T04:11:00.895Z,93213.88
2019-01-20T04:13:28.321Z,93210.16
2019-01-20T04:15:55.672Z,93209.44
2019-01-20T04:18:23.038Z,93208.31
2019-01-20T04:20:50.390Z,93208.52
2019-01-20T04:23:17.752Z,93209.77
2019-01-20T04:25:46.795Z,93205.84
2019-01-20T04:28:14.174Z,93202.83
2019-01-20T04:30:41.630Z,93202.32
2019-01-20T04:33:09.023Z,93205.91
2019-01-20T04:35:36.398Z,93207.09
2019-01-20T04:38:03.809Z,93205.48
2019-01-20T04:40:31.192Z,93203.17
2019-01-20T04:42:58.559Z,93206.30
2019-01-20T04:45:25.940Z,93200.27
2019-01-20T04:47:53.306Z,93202.09
2019-01-20T04:50:21.718Z,93203.25
2019-01-20T04:52:49.078Z,93204.52
2019-01-20T04:55:16.460Z,93201.39
2019-01-20T04:57:47.706Z,93203.47
2019-01-20T05:00:16.176Z,93204.17
2019-01-20T05:02:43.520Z,93202.19
2019-01-20T05:05:10.874Z,93208.36
2019-01-20T05:07:38.271Z,93206.16
2019-01-20T05:10:06.795Z,93212.20
2019-01-20T05:12:37.844Z,93208.91
2019-01-20T05:15:04.141Z,93211.34
2019-01-20T05:17:31.835Z,93214.00
2019-01-20T05:19:59.183Z,93207.47
2019-01-20T05:22:26.676Z,93213.03
2019-01-20T05:24:54.043Z,93215.59
2019-01-20T05:27:21.459Z,93214.55
2019-01-20T05:29:49.126Z,93215.11
2019-01-20T05:32:16.566Z,93212.55
2019-01-20T05:34:43.915Z,93213.95
2019-01-20T05:37:11.297Z,93212.16
2019-01-20T05:39:38.677Z,93211.38
2019-01-20T05:42:06.111Z,93211.52
2019-01-20T05:44:33.478Z,93212.28
2019-01-20T05:47:01.121Z,93210.87
2019-01-20T05:49:28.492Z,93206.71
2019-01-20T05:51:55.943Z,93206.83
2019-01-20T05:54:23.340Z,93206.94
2019-01-20T05:56:50.834Z,93206.01
2019-01-20T05:59:18.188Z,93205.61
2019-01-20T06:01:45.852Z,93212.16
2019-01-20T06:04:13.203Z,93212.16
2019-01-20T06:06:40.545Z,93216.32
2019-01-20T06:09:07.958Z,93214.58
2019-01-20T06:11:35.315Z,93213.65
2019-01-20T06:14:02.658Z,93225.27
2019-01-20T06:16:30.054Z,93222.59
2019-01-20T06:18:57.410Z,93219.82
2019-01-20T06:21:25.094Z,93217.58
2019-01-20T06:23:52.463Z,93220.94
2019-01-20T06:26:19.823Z,93220.94
2019-01-20T06:28:47.283Z,93225.73
2019-01-20T06:31:14.710Z,93226.31
2019-01-20T06:33:42.070Z,93232.26
2019-01-20T06:36:09.470Z,93226.90
2019-01-20T06:38:36.908Z,93227.25
2019-01-20T06:41:04.334Z,93229.02
2019-01-20T06:43:31.711Z,93234.41
2019-01-20T06:45:59.091Z,93232.88
2019-01-20T06:48:26.499Z,93232.77
2019-01-20T06:50:53.846Z,93229.74
2019-01-20T06:53:21.265Z,93238.80
2019-01-20T06:55:48.791Z,93238.34
2019-01-20T06:58:16.143Z,93237.41
2019-01-20T07:00:43.525Z,93239.27
2019-01-20T07:03:10.964Z,93240.50
2019-01-20T07:05:38.302Z,93241.11
2019-01-20T07:08:05.719Z,93244.46
2019-01-20T07:10:33.342Z,93242.48
2019-01-20T07:13:00.950Z,93244.78
2019-01-20T07:15:28.324Z,93242.92
2019-01-20T07:17:55.698Z,93242.22
2019-01-20T07:20:23.160Z,93247.70
2019-01-20T07:22:50.545Z,93248.05
2019-01-20T07:25:17.898Z,93250.23
2019-01-20T07:27:45.247Z,93257.55
2019-01-20T07:30:16.759Z,93254.31
2019-01-20T07:32:44.174Z,93250.91
2019-01-20T07:35:12.981Z,93258.45
2019-01-20T07:37:40.361Z,93262.39
2019-01-20T07:40:08.694Z,93256.77
2019-01-20T07:42:36.183Z,93261.40
2019-01-20T07:45:04.750Z,93266.11
2019-01-20T07:47:32.123Z,93265.11
2019-01-20T07:49:59.596Z,93268.19
2019-01-20T07:52:26.948Z,93271.45
2019-01-20T07:54:54.338Z,93274.05
2019-01-20T07:57:21.731Z,93273.85
2019-01-20T07:59:49.103Z,93273.29
2019-01-20T08:02:16.505Z,93275.50
2019-01-20T08:04:43.905Z,93272.43
2019-01-20T08:07:11.463Z,93275.37
2019-01-20T08:09:38.834Z,93271.41
2019-01-20T08:12:06.257Z,93277.94
2019-01-20T08:14:33.759Z,93279.73
2019-01-20T08:17:01.186Z,93277.23
2019-01-20T08:19:28.562Z,93271.58
2019-01-20T08:21:55.981Z,93276.31
2019-01-20T08:24:23.374Z,93277.87
2019-01-20T08:26:50.815Z,93279.45
2019-01-20T08:29:18.297Z,93286.33
2019-01-20T08:31:45.802Z,93285.98
2019-01-20T08:34:13.181Z,93285.00
2019-01-20T08:36:40.706Z,93284.56
2019-01-20T08:39:08.163Z,93291.98
2019-01-20T08:41:35.597Z,93289.80
2019-01-20T08:44:03.443Z,93293.11
2019-01-20T08:46:35.987Z,93293.13
2019-01-20T08:49:03.920Z,93295.47
2019-01-20T08:51:31.844Z,93295.47
2019-01-20T08:53:59.310Z,93298.70
2019-01-20T08:56:26.814Z,93307.67
2019-01-20T08:58:54.227Z,93302.52
2019-01-20T09:01:21.648Z,93308.27
2019-01-20T09:03:49.022Z,93313.25
2019-01-20T09:06:16.560Z,93314.67
2019-01-20T09:08:44.077Z,93321.97
2019-01-20T09:11:11.426Z,93322.81
2019-01-20T09:13:39.919Z,93319.33
2019-01-20T09:16:07.619Z,93324.44
2019-01-20T09:18:35.066Z,93328.75
2019-01-20T09:21:02.490Z,93331.27
2019-01-20T09:23:29.860Z,93322.39
2019-01-20T09:25:57.235Z,93328.42
2019-01-20T09:28:24.637Z,93335.16
2019-01-20T09:30:52.000Z,93327.75
2019-01-20T09:33:24.473Z,93337.50
2019-01-20T09:35:48.740Z,93331.39
2019-01-20T09:38:16.226Z,93335.08
2019-01-20T09:40:43.621Z,93336.70
2019-01-20T09:43:11.450Z,93338.27
2019-01-20T09:45:39.214Z,93343.75
2019-01-20T09:48:06.762Z,93344.03
2019-01-20T09:50:34.114Z,93340.52
2019-01-20T09:53:01.515Z,93338.41
2019-01-20T09:55:28.893Z,93346.77
2019-01-20T09:57:56.486Z,93349.00
2019-01-20T10:00:24.912Z,93351.39
2019-01-20T10:02:52.423Z,93357.36
2019-01-20T10:05:19.821Z,93359.94
2019-01-20T10:07:47.295Z,93365.95
2019-01-20T10:10:15.162Z,93359.30
2019-01-20T10:12:42.534Z,93362.50
2019-01-20T10:15:10.631Z,93364.19
2019-01-20T10:17:38.012Z,93363.91
2019-01-20T10:20:07.565Z,93366.19
2019-01-20T10:22:34.947Z,93364.56
2019-01-20T10:25:02.341Z,93364.67
2019-01-20T10:27:29.806Z,93365.08
2019-01-20T10:29:57.169Z,93367.48
2019-01-20T10:32:24.609Z,93367.63
2019-01-20T10:34:52.926Z,93365.72
2019-01-20T10:37:20.274Z,93366.17
2019-01-20T10:39:47.702Z,93363.31
2019-01-20T10:42:15.202Z,93370.14
2019-01-20T10:44:42.896Z,93366.94
2019-01-20T10:47:10.387Z,93368.94
2019-01-20T10:49:37.843Z,93371.03
2019-01-20T10:52:05.242Z,93366.79
2019-01-20T10:54:32.776Z,93365.92
2019-01-20T10:57:00.278Z,93364.69
2019-01-20T10:59:27.724Z,93368.63
2019-01-20T11:01:55.158Z,93372.55
2019-01-20T11:04:22.590Z,93369.02
2019-01-20T11:06:50.011Z,93375.22
2019-01-20T11:09:17.392Z,93369.45
2019-01-20T11:11:44.838Z,93372.68
2019-01-20T11:14:12.310Z,93368.55
2019-01-20T11:16:39.839Z,93375.70
2019-01-20T11:19:07.270Z,93377.55
2019-01-20T11:21:34.675Z,93377.56
2019-01-20T11:24:02.138Z,93371.70
2019-01-20T11:26:29.693Z,93368.34
2019-01-20T11:28:57.072Z,93370.89
2019-01-20T11:31:24.552Z,93366.74
2019-01-20T11:33:52.062Z,93371.67
2019-01-20T11:36:19.453Z,93365.10
2019-01-20T11:38:46.858Z,93373.11
2019-01-20T11:41:14.366Z,93358.98
2019-01-20T11:43:41.765Z,93362.28
2019-01-20T11:46:09.177Z,93357.52
2019-01-20T11:48:36.558Z,93365.42
2019-01-20T11:51:03.981Z,93369.66
2019-01-20T11:53:31.326Z,93363.92
2019-01-20T11:55:58.738Z,93368.49
2019-01-20T11:58:26.265Z,93365.95
2019-01-20T12:00:53.640Z,93363.03
2019-01-20T12:03:21.147Z,93361.92
2019-01-20T12:05:48.643Z,93358.41
2019-01-20T12:08:16.075Z,93359.72
2019-01-20T12:10:43.473Z,93367.86
2019-01-20T12:13:12.699Z,93366.52
2019-01-20T12:15:40.195Z,93367.23
2019-01-20T12:18:07.615Z,93357.85
2019-01-20T12:20:35.186Z,93360.77
2019-01-20T12:23:02.721Z,93365.51
2019-01-20T12:25:30.115Z,93365.89
2019-01-20T12:27:57.533Z,93360.99
2019-01-20T12:30:25.720Z,93369.39
2019-01-20T12:32:53.148Z,93368.03
2019-01-20T12:35:20.589Z,93367.42
2019-01-20T12:37:47.980Z,93372.03
2019-01-20T12:40:17.300Z,93366.78
2019-01-20T12:42:44.743Z,93363.88
2019-01-20T12:45:12.131Z,93361.33
2019-01-20T12:47:39.562Z,93362.16
2019-01-20T12:50:08.106Z,93363.06
2019-01-20T12:52:35.606Z,93371.61
2019-01-20T12:55:03.543Z,93371.17
2019-01-20T12:57:31.008Z,93361.77
2019-01-20T12:59:58.503Z,93361.77
2019-01-20T13:02:26.010Z,93366.77
2019-01-20T13:04:56.445Z,93360.15
2019-01-20T13:07:22.674Z,93359.22
2019-01-20T13:09:50.149Z,93353.59
2019-01-20T13:12:17.543Z,93351.17
2019-01-20T13:14:44.937Z,93352.30
2019-01-20T13:17:12.358Z,93349.58
2019-01-20T13:19:39.759Z,93349.06
2019-01-20T13:22:07.155Z,93352.14
2019-01-20T13:24:34.611Z,93352.11
2019-01-20T13:27:01.997Z,93356.30
2019-01-20T13:29:29.405Z,93349.48
2019-01-20T13:31:56.794Z,93354.63
2019-01-20T13:34:24.266Z,93349.19
2019-01-20T13:36:51.640Z,93356.27
2019-01-20T13:39:19.142Z,93349.86
2019-01-20T13:41:46.592Z,93350.45
2019-01-20T13:44:14.039Z,93350.41
2019-01-20T13:46:41.480Z,93354.91
2019-01-20T13:49:08.895Z,93362.63
2019-01-20T13:51:36.351Z,93362.98
2019-01-20T13:54:03.995Z,93365.89
2019-01-20T13:56:31.410Z,93353.19
2019-01-20T13:58:58.892Z,93363.05
2019-01-20T14:01:26.423Z,93364.35
2019-01-20T14:03:53.813Z,93366.94
2019-01-20T14:06:21.227Z,93366.94
2019-01-20T14:08:48.603Z,93366.94
2019-01-20T14:11:16.015Z,93364.00
2019-01-20T14:13:43.513Z,93362.02
2019-01-20T14:16:10.897Z,93362.69
2019-01-20T14:18:45.034Z,93367.55
2019-01-20T14:21:07.561Z,93366.14
2019-01-20T14:23:34.999Z,93366.38
2019-01-20T14:26:02.422Z,93372.67
2019-01-20T14:28:29.807Z,93367.44
2019-01-20T14:30:58.015Z,93371.66
2019-01-20T14:33:25.590Z,93371.98
2019-01-20T14:35:53.122Z,93376.85
2019-01-20T14:38:20.528Z,93377.16
2019-01-20T14:40:48.063Z,93375.64
2019-01-20T14:43:15.542Z,93380.22
2019-01-20T14:45:42.958Z,93371.14
2019-01-20T14:48:10.351Z,93378.88
2019-01-20T14:50:37.831Z,93375.56
2019-01-20T14:53:05.237Z,93379.13
2019-01-20T14:55:32.747Z,93382.36
2019-01-20T14:58:00.110Z,93378.48
2019-01-20T15:00:31.938Z,93386.25
2019-01-20T15:02:59.410Z,93384.61
2019-01-20T15:05:26.900Z,93390.13
2019-01-20T15:07:54.426Z,93390.47
2019-01-20T15:10:21.906Z,93394.69
2019-01-20T15:12:50.265Z,93394.65
2019-01-20T15:15:19.201Z,93392.34
2019-01-20T15:17:46.728Z,93400.10
2019-01-20T15:20:14.469Z,93404.46
2019-01-20T15:22:41.870Z,93405.88
2019-01-20T15:25:09.645Z,93403.65
2019-01-20T15:27:38.074Z,93400.27
2019-01-20T15:30:08.225Z,93404.80
2019-01-20T15:32:35.698Z,93405.44
2019-01-20T15:35:03.445Z,93413.51
2019-01-20T15:37:30.838Z,93409.97
2019-01-20T15:39:58.191Z,93416.37
2019-01-20T15:42:25.589Z,93417.28
2019-01-20T15:44:52.997Z,93420.12
2019-01-20T15:47:20.483Z,93418.80
2019-01-20T15:49:47.953Z,93422.22
2019-01-20T15:52:15.346Z,93424.52
2019-01-20T15:54:42.760Z,93424.43
2019-01-20T15:57:10.230Z,93431.23
2019-01-20T15:59:37.613Z,93434.70
2019-01-20T16:02:05.061Z,93436.60
2019-01-20T16:04:32.514Z,93429.64
2019-01-20T16:06:59.948Z,93433.31
2019-01-20T16:09:27.319Z,93443.53
2019-01-20T16:11:54.846Z,93438.68
2019-01-20T16:14:22.329Z,93440.41
2019-01-20T16:16:49.817Z,93444.76
2019-01-20T16:19:17.595Z,93452.20
2019-01-20T16:21:45.052Z,93450.19
2019-01-20T16:24:12.539Z,93460.38
2019-01-20T16:26:41.561Z,93458.23
2019-01-20T16:29:09.157Z,93462.34
2019-01-20T16:31:39.879Z,93463.25
2019-01-20T16:34:05.897Z,93469.47
2019-01-20T16:36:33.341Z,93470.47
2019-01-20T16:39:00.880Z,93475.13
2019-01-20T16:41:28.364Z,93476.55
2019-01-20T16:43:55.756Z,93471.48
2019-01-20T16:46:23.226Z,93483.23
2019-01-20T16:48:50.613Z,93482.88
2019-01-20T16:51:18.044Z,93483.34
2019-01-20T16:53:46.709Z,93487.09
2019-01-20T16:56:14.218Z,93487.73
2019-01-20T16:58:41.625Z,93488.34
2019-01-20T17:01:09.004Z,93495.22
2019-01-20T17:03:36.512Z,93498.38
2019-01-20T17:06:03.965Z,93495.54
2019-01-20T17:08:31.438Z,93490.91
2019-01-20T17:10:58.939Z,93496.67
2019-01-20T17:13:26.440Z,93502.56
2019-01-20T17:15:53.947Z,93502.16
2019-01-20T17:18:21.687Z,93511.27
2019-01-20T17:20:49.245Z,93508.95
2019-01-20T17:23:16.650Z,93507.87
2019-01-20T17:25:44.318Z,93511.48
2019-01-20T17:28:11.681Z,93512.77
2019-01-20T17:30:39.676Z,93513.97
2019-01-20T17:33:07.502Z,93515.21
2019-01-20T17:35:35.027Z,93518.88
2019-01-20T17:38:02.382Z,93524.04
2019-01-20T17:40:29.916Z,93525.81
2019-01-20T17:42:57.484Z,93526.09
2019-01-20T17:45:26.141Z,93534.90
2019-01-20T17:47:53.508Z,93534.22
2019-01-20T17:50:25.228Z,93538.45
2019-01-20T17:52:53.079Z,93543.30
2019-01-20T17:55:20.590Z,93543.36
2019-01-20T17:57:48.119Z,93542.02
2019-01-20T18:00:17.254Z,93544.91
2019-01-20T18:02:44.740Z,93547.34
2019-01-20T18:05:12.731Z,93551.78
2019-01-20T18:07:40.138Z,93553.73
2019-01-20T18:10:09.121Z,93551.56
2019-01-20T18:12:36.536Z,93551.44
2019-01-20T18:15:04.592Z,93556.17
2019-01-20T18:17:31.979Z,93555.48
2019-01-20T18:19:59.440Z,93560.10
2019-01-20T18:22:27.129Z,93560.82
2019-01-20T18:24:54.555Z,93558.05
2019-01-20T18:27:21.893Z,93559.87
2019-01-20T18:29:49.298Z,93557.48
2019-01-20T18:32:16.675Z,93556.42
2019-01-20T18:34:44.174Z,93561.16
2019-01-20T18:37:11.558Z,93562.92
2019-01-20T18:39:38.954Z,93565.21
2019-01-20T18:42:06.512Z,93561.21
2019-01-20T18:44:34.001Z,93571.30
2019-01-20T18:47:01.378Z,93573.21
2019-01-20T18:49:29.456Z,93571.30
2019-01-20T18:51:57.018Z,93579.18
2019-01-20T18:54:24.396Z,93579.70
2019-01-20T18:56:52.079Z,93583.52
2019-01-20T18:59:19.554Z,93584.80
2019-01-20T19:01:46.955Z,93584.02
2019-01-20T19:04:14.449Z,93587.38
2019-01-20T19:06:41.914Z,93587.66
2019-01-20T19:09:09.328Z,93584.80
2019-01-20T19:11:36.949Z,93587.55
2019-01-20T19:14:04.405Z,93589.71
2019-01-20T19:16:31.828Z,93595.16
2019-01-20T19:18:59.275Z,93599.31
2019-01-20T19:21:26.748Z,93599.41
2019-01-20T19:23:54.153Z,93599.24
2019-01-20T19:26:21.814Z,93599.98
2019-01-20T19:28:49.299Z,93606.09
2019-01-20T19:31:16.675Z,93608.42
2019-01-20T19:33:44.093Z,93607.38
2019-01-20T19:36:11.579Z,93604.86
2019-01-20T19:38:39.117Z,93604.31
2019-01-20T19:41:06.663Z,93608.52
2019-01-20T19:43:34.151Z,93608.42
2019-01-20T19:46:01.522Z,93608.80
2019-01-20T19:48:29.025Z,93610.30
2019-01-20T19:50:56.726Z,93614.09
2019-01-20T19:53:24.130Z,93617.31
2019-01-20T19:55:51.492Z,93616.25
2019-01-20T19:58:18.926Z,93615.27
2019-01-20T20:00:46.316Z,93629.12
2019-01-20T20:03:13.854Z,93627.20
2019-01-20T20:05:41.260Z,93627.72
2019-01-20T20:08:08.648Z,93637.05
2019-01-20T20:10:36.067Z,93634.32
2019-01-20T20:13:03.608Z,93643.38
2019-01-20T20:15:31.098Z,93643.76
2019-01-20T20:17:58.618Z,93641.45
2019-01-20T20:20:26.051Z,93638.61
2019-01-20T20:22:53.671Z,93641.54
2019-01-20T20:25:21.606Z,93643.25
2019-01-20T20:27:49.175Z,93645.16
2019-01-20T20:30:20.771Z,93642.39
2019-01-20T20:32:48.222Z,93642.13
2019-01-20T20:35:15.614Z,93643.95
2019-01-20T20:37:43.106Z,93643.02
2019-01-20T20:40:11.446Z,93651.74
2019-01-20T20:42:39.099Z,93650.34
2019-01-20T20:45:07.610Z,93655.88
2019-01-20T20:47:34.982Z,93654.67
2019-01-20T20:50:02.801Z,93657.44
2019-01-20T20:52:30.220Z,93659.31
2019-01-20T20:54:57.690Z,93658.27
2019-01-20T20:57:25.080Z,93653.47
2019-01-20T20:59:52.628Z,93661.70
2019-01-20T21:02:20.466Z,93661.34
2019-01-20T21:04:47.951Z,93664.34
2019-01-20T21:07:15.353Z,93657.25
2019-01-20T21:09:42.828Z,93659.00
2019-01-20T21:12:10.282Z,93666.25
2019-01-20T21:14:37.676Z,93667.86
2019-01-20T21:17:05.116Z,93666.30
2019-01-20T21:19:32.545Z,93661.61
2019-01-20T21:22:00.032Z,93671.44
2019-01-20T21:24:28.196Z,93671.36
2019-01-20T21:26:55.746Z,93672.41
2019-01-20T21:29:23.124Z,93673.77
2019-01-20T21:31:50.577Z,93678.92
2019-01-20T21:34:18.020Z,93677.48
2019-01-20T21:36:45.433Z,93676.34
2019-01-20T21:39:13.170Z,93679.92
2019-01-20T21:41:40.551Z,93685.77
2019-01-20T21:44:07.933Z,93687.14
2019-01-20T21:46:35.344Z,93687.41
2019-01-20T21:49:03.152Z,93689.33
2019-01-20T21:51:30.615Z,93687.14
2019-01-20T21:53:57.991Z,93686.70
2019-01-20T21:56:25.401Z,93696.30
2019-01-20T21:58:52.840Z,93691.65
2019-01-20T22:01:20.263Z,93700.30
2019-01-20T22:03:47.781Z,93704.45
2019-01-20T22:06:15.591Z,93704.02
2019-01-20T22:08:43.045Z,93706.70
2019-01-20T22:11:10.420Z,93709.36
2019-01-20T22:13:39.432Z,93708.66
2019-01-20T22:16:06.882Z,93711.94
2019-01-20T22:18:34.219Z,93720.53
2019-01-20T22:21:01.603Z,93721.44
2019-01-20T22:23:28.994Z,93722.37
2019-01-20T22:25:56.922Z,93729.06
2019-01-20T22:28:24.469Z,93727.78
2019-01-20T22:30:51.861Z,93733.36
2019-01-20T22:33:19.345Z,93733.56
2019-01-20T22:35:46.721Z,93737.72
2019-01-20T22:38:14.090Z,93736.52
2019-01-20T22:40:41.575Z,93737.34
2019-01-20T22:43:09.032Z,93733.72
2019-01-20T22:45:36.438Z,93738.27
2019-01-20T22:48:03.845Z,93735.73
2019-01-20T22:50:31.600Z,93740.14
2019-01-20T22:52:59.118Z,93737.60
2019-01-20T22:55:26.463Z,93742.42
2019-01-20T22:57:54.134Z,93743.09
2019-01-20T23:00:38.916Z,93741.01
2019-01-20T23:03:06.462Z,93750.13
2019-01-20T23:05:33.888Z,93746.30
2019-01-20T23:08:01.317Z,93743.49
2019-01-20T23:10:28.694Z,93748.72
2019-01-20T23:12:56.378Z,93746.30
2019-01-20T23:15:23.717Z,93751.06
2019-01-20T23:17:51.082Z,93749.12
2019-01-20T23:20:18.554Z,93746.20
2019-01-20T23:22:46.006Z,93745.52
2019-01-20T23:25:13.493Z,93758.20
2019-01-20T23:27:40.962Z,93750.01
2019-01-20T23:30:09.300Z,93753.20
2019-01-20T23:32:36.712Z,93752.27
2019-01-20T23:35:04.490Z,93748.84
2019-01-20T23:37:31.830Z,93748.41
2019-01-20T23:39:59.248Z,93755.77
2019-01-20T23:42:26.618Z,93753.42
2019-01-20T23:44:53.963Z,93760.45
2019-01-20T23:47:21.346Z,93755.06
2019-01-20T23:49:48.686Z,93757.70
2019-01-20T23:52:16.038Z,93753.75
2019-01-20T23:54:43.496Z,93758.56
2019-01-20T23:57:10.842Z,93749.31
2019-01-20T23:59:38.214Z,93757.14
